sensor_id;sensor_type;location;lat;lon;timestamp;P1;durP1;ratioP1;P2;durP2;ratioP2
15061;SDS011;7630;50.306;8.566;2023-02-19T00:02:51;6.77;;;6.27;;
15061;SDS011;7630;50.306;8.566;2023-02-19T00:15:25;6.53;;;6.07;;
15061;SDS011;7630;50.306;8.566;2023-02-19T00:19:26;5.60;;;5.20;;
15061;SDS011;7630;50.306;8.566;2023-02-19T00:23:27;5.87;;;5.47;;
15061;SDS011;7630;50.306;8.566;2023-02-19T00:27:29;5.77;;;5.37;;
15061;SDS011;7630;50.306;8.566;2023-02-19T00:31:31;5.67;;;5.20;;
15061;SDS011;7630;50.306;8.566;2023-02-19T00:35:34;4.77;;;4.47;;
15061;SDS011;7630;50.306;8.566;2023-02-19T00:39:35;4.23;;;3.83;;
15061;SDS011;7630;50.306;8.566;2023-02-19T00:43:36;5.60;;;5.23;;
15061;SDS011;7630;50.306;8.566;2023-02-19T00:47:37;3.83;;;3.53;;
15061;SDS011;7630;50.306;8.566;2023-02-19T00:51:38;4.30;;;3.93;;
15061;SDS011;7630;50.306;8.566;2023-02-19T00:55:40;4.73;;;4.43;;
15061;SDS011;7630;50.306;8.566;2023-02-19T00:59:41;5.10;;;4.60;;
15061;SDS011;7630;50.306;8.566;2023-02-19T01:03:42;4.87;;;4.47;;
15061;SDS011;7630;50.306;8.566;2023-02-19T01:07:43;5.33;;;4.93;;
15061;SDS011;7630;50.306;8.566;2023-02-19T01:11:44;5.87;;;5.37;;
15061;SDS011;7630;50.306;8.566;2023-02-19T01:15:45;6.23;;;5.60;;
15061;SDS011;7630;50.306;8.566;2023-02-19T01:19:46;5.43;;;5.03;;
15061;SDS011;7630;50.306;8.566;2023-02-19T01:23:49;4.90;;;4.60;;
15061;SDS011;7630;50.306;8.566;2023-02-19T01:27:51;4.47;;;4.17;;
15061;SDS011;7630;50.306;8.566;2023-02-19T01:31:52;4.53;;;4.13;;
15061;SDS011;7630;50.306;8.566;2023-02-19T01:35:54;4.17;;;3.87;;
15061;SDS011;7630;50.306;8.566;2023-02-19T01:39:55;3.70;;;3.50;;
15061;SDS011;7630;50.306;8.566;2023-02-19T01:48:20;2.80;;;2.70;;
15061;SDS011;7630;50.306;8.566;2023-02-19T01:52:33;3.53;;;3.23;;
15061;SDS011;7630;50.306;8.566;2023-02-19T01:56:36;3.63;;;3.30;;
15061;SDS011;7630;50.306;8.566;2023-02-19T02:00:39;3.20;;;3.00;;
15061;SDS011;7630;50.306;8.566;2023-02-19T02:04:40;3.57;;;3.37;;
15061;SDS011;7630;50.306;8.566;2023-02-19T02:08:42;3.97;;;3.57;;
15061;SDS011;7630;50.306;8.566;2023-02-19T02:13:01;4.20;;;3.90;;
15061;SDS011;7630;50.306;8.566;2023-02-19T02:34:28;3.03;;;2.83;;
15061;SDS011;7630;50.306;8.566;2023-02-19T02:38:32;3.53;;;3.23;;
15061;SDS011;7630;50.306;8.566;2023-02-19T02:42:37;2.80;;;2.70;;
15061;SDS011;7630;50.306;8.566;2023-02-19T02:46:41;2.73;;;2.63;;
15061;SDS011;7630;50.306;8.566;2023-02-19T02:51:46;2.20;;;2.10;;
15061;SDS011;7630;50.306;8.566;2023-02-19T02:55:01;2.83;;;2.63;;
15061;SDS011;7630;50.306;8.566;2023-02-19T02:59:07;3.13;;;2.93;;
15061;SDS011;7630;50.306;8.566;2023-02-19T03:03:10;2.50;;;2.40;;
15061;SDS011;7630;50.306;8.566;2023-02-19T03:07:13;3.10;;;2.90;;
15061;SDS011;7630;50.306;8.566;2023-02-19T03:11:14;2.97;;;2.77;;
15061;SDS011;7630;50.306;8.566;2023-02-19T03:15:38;2.90;;;2.50;;
15061;SDS011;7630;50.306;8.566;2023-02-19T03:20:04;3.10;;;2.90;;
15061;SDS011;7630;50.306;8.566;2023-02-19T03:24:08;2.87;;;2.67;;
15061;SDS011;7630;50.306;8.566;2023-02-19T03:28:31;2.67;;;2.47;;
15061;SDS011;7630;50.306;8.566;2023-02-19T03:33:00;2.77;;;2.57;;
15061;SDS011;7630;50.306;8.566;2023-02-19T03:37:11;2.63;;;2.37;;
15061;SDS011;7630;50.306;8.566;2023-02-19T03:49:58;1.93;;;1.83;;
15061;SDS011;7630;50.306;8.566;2023-02-19T03:58:24;1.60;;;1.50;;
15061;SDS011;7630;50.306;8.566;2023-02-19T04:02:34;1.97;;;1.87;;
15061;SDS011;7630;50.306;8.566;2023-02-19T04:06:37;1.73;;;1.63;;
15061;SDS011;7630;50.306;8.566;2023-02-19T04:10:41;1.60;;;1.50;;
15061;SDS011;7630;50.306;8.566;2023-02-19T04:14:45;1.60;;;1.50;;
15061;SDS011;7630;50.306;8.566;2023-02-19T04:18:49;1.50;;;1.40;;
15061;SDS011;7630;50.306;8.566;2023-02-19T04:22:54;1.50;;;1.50;;
15061;SDS011;7630;50.306;8.566;2023-02-19T04:26:56;1.87;;;1.77;;
15061;SDS011;7630;50.306;8.566;2023-02-19T04:30:58;1.83;;;1.73;;
15061;SDS011;7630;50.306;8.566;2023-02-19T04:34:59;2.27;;;2.17;;
15061;SDS011;7630;50.306;8.566;2023-02-19T04:39:00;2.20;;;2.10;;
15061;SDS011;7630;50.306;8.566;2023-02-19T04:43:01;2.70;;;2.50;;
15061;SDS011;7630;50.306;8.566;2023-02-19T04:47:02;2.67;;;2.47;;
15061;SDS011;7630;50.306;8.566;2023-02-19T04:51:05;3.03;;;2.83;;
15061;SDS011;7630;50.306;8.566;2023-02-19T04:55:07;3.20;;;3.00;;
15061;SDS011;7630;50.306;8.566;2023-02-19T04:59:09;4.90;;;3.00;;
15061;SDS011;7630;50.306;8.566;2023-02-19T05:03:10;3.13;;;2.90;;
15061;SDS011;7630;50.306;8.566;2023-02-19T05:07:11;3.27;;;3.00;;
15061;SDS011;7630;50.306;8.566;2023-02-19T05:11:12;3.33;;;3.13;;
15061;SDS011;7630;50.306;8.566;2023-02-19T05:15:14;3.53;;;3.30;;
15061;SDS011;7630;50.306;8.566;2023-02-19T05:19:15;4.33;;;4.03;;
15061;SDS011;7630;50.306;8.566;2023-02-19T05:23:16;2.97;;;2.87;;
15061;SDS011;7630;50.306;8.566;2023-02-19T05:27:18;4.50;;;4.10;;
15061;SDS011;7630;50.306;8.566;2023-02-19T05:31:19;3.50;;;3.20;;
15061;SDS011;7630;50.306;8.566;2023-02-19T05:35:21;2.90;;;2.70;;
15061;SDS011;7630;50.306;8.566;2023-02-19T05:39:22;3.63;;;3.40;;
15061;SDS011;7630;50.306;8.566;2023-02-19T05:43:23;2.87;;;2.60;;
15061;SDS011;7630;50.306;8.566;2023-02-19T05:47:24;3.80;;;3.50;;
15061;SDS011;7630;50.306;8.566;2023-02-19T05:51:25;3.93;;;3.63;;
15061;SDS011;7630;50.306;8.566;2023-02-19T05:55:27;7.87;;;4.57;;
15061;SDS011;7630;50.306;8.566;2023-02-19T05:59:29;4.47;;;4.03;;
15061;SDS011;7630;50.306;8.566;2023-02-19T06:03:31;3.97;;;3.63;;
15061;SDS011;7630;50.306;8.566;2023-02-19T06:07:32;9.30;;;4.33;;
15061;SDS011;7630;50.306;8.566;2023-02-19T06:11:34;4.13;;;3.60;;
15061;SDS011;7630;50.306;8.566;2023-02-19T06:15:35;6.17;;;4.23;;
15061;SDS011;7630;50.306;8.566;2023-02-19T06:19:37;5.67;;;3.70;;
15061;SDS011;7630;50.306;8.566;2023-02-19T06:23:38;4.67;;;3.77;;
15061;SDS011;7630;50.306;8.566;2023-02-19T06:27:39;7.03;;;5.70;;
15061;SDS011;7630;50.306;8.566;2023-02-19T06:31:41;7.00;;;6.40;;
15061;SDS011;7630;50.306;8.566;2023-02-19T06:35:42;7.97;;;5.07;;
15061;SDS011;7630;50.306;8.566;2023-02-19T06:39:43;6.97;;;6.10;;
15061;SDS011;7630;50.306;8.566;2023-02-19T06:43:44;10.13;;;6.70;;
15061;SDS011;7630;50.306;8.566;2023-02-19T06:47:46;9.50;;;7.33;;
15061;SDS011;7630;50.306;8.566;2023-02-19T06:51:47;8.80;;;6.47;;
15061;SDS011;7630;50.306;8.566;2023-02-19T06:55:55;8.40;;;6.87;;
15061;SDS011;7630;50.306;8.566;2023-02-19T06:59:58;12.13;;;6.70;;
15061;SDS011;7630;50.306;8.566;2023-02-19T07:04:00;7.50;;;6.57;;
15061;SDS011;7630;50.306;8.566;2023-02-19T07:08:01;5.40;;;4.90;;
15061;SDS011;7630;50.306;8.566;2023-02-19T07:12:02;6.90;;;5.63;;
15061;SDS011;7630;50.306;8.566;2023-02-19T07:16:05;7.23;;;6.03;;
15061;SDS011;7630;50.306;8.566;2023-02-19T07:20:09;8.10;;;5.50;;
15061;SDS011;7630;50.306;8.566;2023-02-19T07:24:10;6.40;;;5.10;;
15061;SDS011;7630;50.306;8.566;2023-02-19T07:28:11;11.33;;;6.97;;
15061;SDS011;7630;50.306;8.566;2023-02-19T07:32:12;8.70;;;7.90;;
15061;SDS011;7630;50.306;8.566;2023-02-19T07:36:14;12.33;;;7.33;;
15061;SDS011;7630;50.306;8.566;2023-02-19T07:40:17;11.83;;;9.20;;
15061;SDS011;7630;50.306;8.566;2023-02-19T07:44:18;12.23;;;7.87;;
15061;SDS011;7630;50.306;8.566;2023-02-19T07:48:19;9.30;;;6.60;;
15061;SDS011;7630;50.306;8.566;2023-02-19T07:52:21;10.10;;;7.57;;
15061;SDS011;7630;50.306;8.566;2023-02-19T07:56:22;12.43;;;7.17;;
15061;SDS011;7630;50.306;8.566;2023-02-19T08:00:23;8.83;;;6.80;;
15061;SDS011;7630;50.306;8.566;2023-02-19T08:04:25;10.67;;;6.90;;
15061;SDS011;7630;50.306;8.566;2023-02-19T08:08:26;9.90;;;7.17;;
15061;SDS011;7630;50.306;8.566;2023-02-19T08:12:28;11.97;;;6.93;;
15061;SDS011;7630;50.306;8.566;2023-02-19T08:16:48;6.50;;;5.87;;
15061;SDS011;7630;50.306;8.566;2023-02-19T08:20:50;11.13;;;7.87;;
15061;SDS011;7630;50.306;8.566;2023-02-19T08:24:52;14.87;;;10.60;;
15061;SDS011;7630;50.306;8.566;2023-02-19T08:28:53;14.63;;;8.60;;
15061;SDS011;7630;50.306;8.566;2023-02-19T08:32:54;9.33;;;8.43;;
15061;SDS011;7630;50.306;8.566;2023-02-19T08:36:55;12.23;;;8.93;;
15061;SDS011;7630;50.306;8.566;2023-02-19T08:40:57;12.50;;;11.23;;
15061;SDS011;7630;50.306;8.566;2023-02-19T08:44:58;12.03;;;10.83;;
15061;SDS011;7630;50.306;8.566;2023-02-19T08:48:59;14.40;;;11.00;;
15061;SDS011;7630;50.306;8.566;2023-02-19T08:53:01;16.57;;;10.93;;
15061;SDS011;7630;50.306;8.566;2023-02-19T08:57:03;16.83;;;12.10;;
15061;SDS011;7630;50.306;8.566;2023-02-19T09:01:08;19.43;;;13.37;;
15061;SDS011;7630;50.306;8.566;2023-02-19T09:05:14;21.93;;;19.77;;
15061;SDS011;7630;50.306;8.566;2023-02-19T09:09:16;14.37;;;12.93;;
15061;SDS011;7630;50.306;8.566;2023-02-19T09:13:17;17.63;;;12.30;;
15061;SDS011;7630;50.306;8.566;2023-02-19T09:17:18;15.27;;;12.93;;
15061;SDS011;7630;50.306;8.566;2023-02-19T09:21:19;15.63;;;13.90;;
15061;SDS011;7630;50.306;8.566;2023-02-19T09:25:20;14.47;;;11.93;;
15061;SDS011;7630;50.306;8.566;2023-02-19T09:29:23;11.60;;;10.40;;
15061;SDS011;7630;50.306;8.566;2023-02-19T09:33:25;11.70;;;10.50;;
15061;SDS011;7630;50.306;8.566;2023-02-19T09:37:26;13.93;;;12.63;;
15061;SDS011;7630;50.306;8.566;2023-02-19T09:41:29;11.97;;;10.60;;
15061;SDS011;7630;50.306;8.566;2023-02-19T09:45:31;12.67;;;9.97;;
15061;SDS011;7630;50.306;8.566;2023-02-19T09:49:36;9.97;;;8.97;;
15061;SDS011;7630;50.306;8.566;2023-02-19T09:53:44;10.73;;;7.87;;
15061;SDS011;7630;50.306;8.566;2023-02-19T09:57:49;8.53;;;7.50;;
15061;SDS011;7630;50.306;8.566;2023-02-19T10:01:56;12.20;;;7.13;;
15061;SDS011;7630;50.306;8.566;2023-02-19T10:06:00;11.37;;;7.37;;
15061;SDS011;7630;50.306;8.566;2023-02-19T10:14:22;18.90;;;15.20;;
15061;SDS011;7630;50.306;8.566;2023-02-19T10:18:27;14.30;;;13.30;;
15061;SDS011;7630;50.306;8.566;2023-02-19T10:22:30;10.00;;;8.97;;
15061;SDS011;7630;50.306;8.566;2023-02-19T10:26:33;11.27;;;9.97;;
15061;SDS011;7630;50.306;8.566;2023-02-19T10:30:36;12.07;;;10.57;;
15061;SDS011;7630;50.306;8.566;2023-02-19T10:34:37;9.77;;;8.87;;
15061;SDS011;7630;50.306;8.566;2023-02-19T10:38:39;15.10;;;11.43;;
15061;SDS011;7630;50.306;8.566;2023-02-19T10:42:47;13.20;;;11.53;;
15061;SDS011;7630;50.306;8.566;2023-02-19T10:46:50;10.07;;;9.03;;
15061;SDS011;7630;50.306;8.566;2023-02-19T10:51:01;12.33;;;9.00;;
15061;SDS011;7630;50.306;8.566;2023-02-19T10:55:16;10.60;;;9.07;;
15061;SDS011;7630;50.306;8.566;2023-02-19T10:59:28;11.67;;;9.30;;
15061;SDS011;7630;50.306;8.566;2023-02-19T11:03:31;11.77;;;10.57;;
15061;SDS011;7630;50.306;8.566;2023-02-19T11:07:32;15.60;;;11.90;;
15061;SDS011;7630;50.306;8.566;2023-02-19T11:11:37;16.10;;;13.23;;
15061;SDS011;7630;50.306;8.566;2023-02-19T11:15:39;17.63;;;14.23;;
15061;SDS011;7630;50.306;8.566;2023-02-19T11:19:43;14.67;;;12.97;;
15061;SDS011;7630;50.306;8.566;2023-02-19T11:23:48;17.97;;;13.97;;
15061;SDS011;7630;50.306;8.566;2023-02-19T11:36:25;20.50;;;15.53;;
15061;SDS011;7630;50.306;8.566;2023-02-19T11:40:37;21.27;;;16.43;;
15061;SDS011;7630;50.306;8.566;2023-02-19T11:53:47;19.50;;;17.07;;
15061;SDS011;7630;50.306;8.566;2023-02-19T12:02:25;20.37;;;16.23;;
15061;SDS011;7630;50.306;8.566;2023-02-19T12:15:34;22.07;;;15.70;;
15061;SDS011;7630;50.306;8.566;2023-02-19T12:24:09;14.87;;;13.07;;
15061;SDS011;7630;50.306;8.566;2023-02-19T12:28:31;14.53;;;11.30;;
15061;SDS011;7630;50.306;8.566;2023-02-19T12:32:48;14.77;;;11.27;;
15061;SDS011;7630;50.306;8.566;2023-02-19T12:37:06;12.10;;;10.93;;
15061;SDS011;7630;50.306;8.566;2023-02-19T12:45:37;13.47;;;11.90;;
15061;SDS011;7630;50.306;8.566;2023-02-19T12:49:52;12.93;;;11.57;;
15061;SDS011;7630;50.306;8.566;2023-02-19T12:54:01;12.10;;;10.87;;
15061;SDS011;7630;50.306;8.566;2023-02-19T12:58:17;16.17;;;10.50;;
15061;SDS011;7630;50.306;8.566;2023-02-19T13:02:24;10.43;;;9.33;;
15061;SDS011;7630;50.306;8.566;2023-02-19T13:10:39;11.33;;;8.67;;
15061;SDS011;7630;50.306;8.566;2023-02-19T13:15:12;12.77;;;8.73;;
15061;SDS011;7630;50.306;8.566;2023-02-19T13:19:09;12.63;;;9.53;;
15061;SDS011;7630;50.306;8.566;2023-02-19T13:27:54;14.40;;;9.27;;
15061;SDS011;7630;50.306;8.566;2023-02-19T13:36:23;9.60;;;7.87;;
15061;SDS011;7630;50.306;8.566;2023-02-19T13:44:35;10.23;;;9.23;;
15061;SDS011;7630;50.306;8.566;2023-02-19T13:48:40;12.07;;;8.60;;
15061;SDS011;7630;50.306;8.566;2023-02-19T13:52:43;10.40;;;9.40;;
15061;SDS011;7630;50.306;8.566;2023-02-19T13:56:44;8.93;;;7.87;;
15061;SDS011;7630;50.306;8.566;2023-02-19T14:00:47;8.47;;;7.77;;
15061;SDS011;7630;50.306;8.566;2023-02-19T14:04:50;8.30;;;7.60;;
15061;SDS011;7630;50.306;8.566;2023-02-19T14:08:54;9.73;;;7.37;;
15061;SDS011;7630;50.306;8.566;2023-02-19T14:12:57;8.33;;;7.57;;
15061;SDS011;7630;50.306;8.566;2023-02-19T14:17:03;12.50;;;8.03;;
15061;SDS011;7630;50.306;8.566;2023-02-19T14:29:41;8.80;;;7.90;;
15061;SDS011;7630;50.306;8.566;2023-02-19T14:33:48;9.07;;;8.20;;
15061;SDS011;7630;50.306;8.566;2023-02-19T14:37:51;11.63;;;8.87;;
15061;SDS011;7630;50.306;8.566;2023-02-19T14:41:56;7.97;;;5.50;;
15061;SDS011;7630;50.306;8.566;2023-02-19T14:46:01;12.00;;;6.53;;
15061;SDS011;7630;50.306;8.566;2023-02-19T14:50:08;9.80;;;6.87;;
15061;SDS011;7630;50.306;8.566;2023-02-19T14:54:18;4.80;;;4.30;;
15061;SDS011;7630;50.306;8.566;2023-02-19T14:58:23;5.03;;;4.63;;
15061;SDS011;7630;50.306;8.566;2023-02-19T15:02:27;4.53;;;4.20;;
15061;SDS011;7630;50.306;8.566;2023-02-19T15:06:31;5.17;;;4.40;;
15061;SDS011;7630;50.306;8.566;2023-02-19T15:10:34;5.83;;;4.00;;
15061;SDS011;7630;50.306;8.566;2023-02-19T15:14:36;3.23;;;2.97;;
15061;SDS011;7630;50.306;8.566;2023-02-19T15:18:39;3.60;;;3.27;;
15061;SDS011;7630;50.306;8.566;2023-02-19T15:22:45;3.40;;;3.10;;
15061;SDS011;7630;50.306;8.566;2023-02-19T15:26:48;3.30;;;2.93;;
15061;SDS011;7630;50.306;8.566;2023-02-19T15:35:04;4.10;;;2.23;;
15061;SDS011;7630;50.306;8.566;2023-02-19T15:39:06;3.67;;;3.37;;
15061;SDS011;7630;50.306;8.566;2023-02-19T15:43:09;4.07;;;3.30;;
15061;SDS011;7630;50.306;8.566;2023-02-19T15:47:14;4.77;;;4.27;;
15061;SDS011;7630;50.306;8.566;2023-02-19T15:52:10;3.43;;;3.23;;
15061;SDS011;7630;50.306;8.566;2023-02-19T15:56:03;3.60;;;3.20;;
15061;SDS011;7630;50.306;8.566;2023-02-19T16:04:15;8.53;;;5.73;;
15061;SDS011;7630;50.306;8.566;2023-02-19T16:08:19;6.03;;;5.53;;
15061;SDS011;7630;50.306;8.566;2023-02-19T16:12:22;5.53;;;5.13;;
15061;SDS011;7630;50.306;8.566;2023-02-19T16:16:25;4.70;;;4.27;;
15061;SDS011;7630;50.306;8.566;2023-02-19T16:20:33;4.37;;;4.07;;
15061;SDS011;7630;50.306;8.566;2023-02-19T16:24:36;5.30;;;4.23;;
15061;SDS011;7630;50.306;8.566;2023-02-19T16:28:40;5.40;;;4.67;;
15061;SDS011;7630;50.306;8.566;2023-02-19T16:32:42;5.43;;;4.87;;
15061;SDS011;7630;50.306;8.566;2023-02-19T16:36:46;5.50;;;5.00;;
15061;SDS011;7630;50.306;8.566;2023-02-19T16:44:55;4.73;;;4.37;;
15061;SDS011;7630;50.306;8.566;2023-02-19T16:48:56;6.43;;;5.27;;
15061;SDS011;7630;50.306;8.566;2023-02-19T16:52:59;4.70;;;4.33;;
15061;SDS011;7630;50.306;8.566;2023-02-19T16:57:01;9.80;;;6.17;;
15061;SDS011;7630;50.306;8.566;2023-02-19T17:01:02;7.10;;;6.40;;
15061;SDS011;7630;50.306;8.566;2023-02-19T17:05:04;6.37;;;5.87;;
15061;SDS011;7630;50.306;8.566;2023-02-19T17:09:05;6.80;;;6.20;;
15061;SDS011;7630;50.306;8.566;2023-02-19T17:13:09;6.63;;;6.03;;
15061;SDS011;7630;50.306;8.566;2023-02-19T17:17:10;12.57;;;9.50;;
15061;SDS011;7630;50.306;8.566;2023-02-19T17:21:21;20.43;;;18.37;;
15061;SDS011;7630;50.306;8.566;2023-02-19T17:25:27;12.40;;;11.10;;
15061;SDS011;7630;50.306;8.566;2023-02-19T17:29:28;10.90;;;9.90;;
15061;SDS011;7630;50.306;8.566;2023-02-19T17:33:31;14.90;;;13.50;;
15061;SDS011;7630;50.306;8.566;2023-02-19T17:37:33;23.70;;;19.10;;
15061;SDS011;7630;50.306;8.566;2023-02-19T17:41:34;10.67;;;9.67;;
15061;SDS011;7630;50.306;8.566;2023-02-19T17:45:35;13.80;;;12.40;;
15061;SDS011;7630;50.306;8.566;2023-02-19T17:49:37;22.07;;;18.67;;
15061;SDS011;7630;50.306;8.566;2023-02-19T17:53:38;12.20;;;10.50;;
15061;SDS011;7630;50.306;8.566;2023-02-19T17:57:39;12.67;;;11.57;;
15061;SDS011;7630;50.306;8.566;2023-02-19T18:01:40;13.40;;;11.83;;
15061;SDS011;7630;50.306;8.566;2023-02-19T18:05:41;19.77;;;16.23;;
15061;SDS011;7630;50.306;8.566;2023-02-19T18:09:43;13.57;;;12.23;;
15061;SDS011;7630;50.306;8.566;2023-02-19T18:13:44;11.77;;;10.63;;
15061;SDS011;7630;50.306;8.566;2023-02-19T18:17:45;13.43;;;11.63;;
15061;SDS011;7630;50.306;8.566;2023-02-19T18:21:46;9.93;;;9.03;;
15061;SDS011;7630;50.306;8.566;2023-02-19T18:25:47;11.70;;;10.60;;
15061;SDS011;7630;50.306;8.566;2023-02-19T18:29:50;13.13;;;11.73;;
15061;SDS011;7630;50.306;8.566;2023-02-19T18:33:52;11.20;;;9.57;;
15061;SDS011;7630;50.306;8.566;2023-02-19T18:37:53;11.53;;;10.43;;
15061;SDS011;7630;50.306;8.566;2023-02-19T18:41:54;12.67;;;9.90;;
15061;SDS011;7630;50.306;8.566;2023-02-19T18:45:57;16.33;;;14.13;;
15061;SDS011;7630;50.306;8.566;2023-02-19T18:49:58;12.17;;;10.97;;
15061;SDS011;7630;50.306;8.566;2023-02-19T18:53:59;12.10;;;9.73;;
15061;SDS011;7630;50.306;8.566;2023-02-19T18:58:01;10.90;;;9.70;;
15061;SDS011;7630;50.306;8.566;2023-02-19T19:02:03;10.47;;;9.47;;
15061;SDS011;7630;50.306;8.566;2023-02-19T19:06:08;12.27;;;10.53;;
15061;SDS011;7630;50.306;8.566;2023-02-19T19:10:09;12.47;;;11.17;;
15061;SDS011;7630;50.306;8.566;2023-02-19T19:14:10;11.53;;;10.17;;
15061;SDS011;7630;50.306;8.566;2023-02-19T19:18:11;16.47;;;13.10;;
15061;SDS011;7630;50.306;8.566;2023-02-19T19:22:12;14.83;;;13.33;;
15061;SDS011;7630;50.306;8.566;2023-02-19T19:26:15;20.87;;;13.07;;
15061;SDS011;7630;50.306;8.566;2023-02-19T19:30:17;12.67;;;11.37;;
15061;SDS011;7630;50.306;8.566;2023-02-19T19:34:20;13.17;;;11.67;;
15061;SDS011;7630;50.306;8.566;2023-02-19T19:38:21;12.60;;;11.30;;
15061;SDS011;7630;50.306;8.566;2023-02-19T19:42:22;12.50;;;11.10;;
15061;SDS011;7630;50.306;8.566;2023-02-19T19:46:24;36.80;;;23.83;;
15061;SDS011;7630;50.306;8.566;2023-02-19T19:50:25;12.80;;;11.60;;
15061;SDS011;7630;50.306;8.566;2023-02-19T19:54:26;31.20;;;20.90;;
15061;SDS011;7630;50.306;8.566;2023-02-19T19:58:28;14.67;;;13.17;;
15061;SDS011;7630;50.306;8.566;2023-02-19T20:02:29;18.73;;;13.57;;
15061;SDS011;7630;50.306;8.566;2023-02-19T20:10:40;17.20;;;15.43;;
15061;SDS011;7630;50.306;8.566;2023-02-19T20:14:45;17.47;;;14.97;;
15061;SDS011;7630;50.306;8.566;2023-02-19T20:18:46;22.40;;;17.40;;
15061;SDS011;7630;50.306;8.566;2023-02-19T20:22:48;18.23;;;16.10;;
15061;SDS011;7630;50.306;8.566;2023-02-19T20:26:55;18.57;;;16.67;;
15061;SDS011;7630;50.306;8.566;2023-02-19T20:30:58;23.23;;;19.53;;
15061;SDS011;7630;50.306;8.566;2023-02-19T20:34:59;22.10;;;19.63;;
15061;SDS011;7630;50.306;8.566;2023-02-19T20:39:00;20.17;;;16.37;;
15061;SDS011;7630;50.306;8.566;2023-02-19T20:43:01;20.80;;;15.47;;
15061;SDS011;7630;50.306;8.566;2023-02-19T20:47:03;26.93;;;19.33;;
15061;SDS011;7630;50.306;8.566;2023-02-19T20:51:04;18.53;;;15.30;;
15061;SDS011;7630;50.306;8.566;2023-02-19T20:55:06;16.10;;;14.53;;
15061;SDS011;7630;50.306;8.566;2023-02-19T20:59:08;17.40;;;14.60;;
15061;SDS011;7630;50.306;8.566;2023-02-19T21:03:09;15.80;;;13.53;;
15061;SDS011;7630;50.306;8.566;2023-02-19T21:07:11;15.88;;;14.47;;
15061;SDS011;7630;50.306;8.566;2023-02-19T21:11:12;16.57;;;14.90;;
15061;SDS011;7630;50.306;8.566;2023-02-19T21:15:13;16.20;;;14.50;;
15061;SDS011;7630;50.306;8.566;2023-02-19T21:19:14;15.53;;;13.80;;
15061;SDS011;7630;50.306;8.566;2023-02-19T21:23:17;15.37;;;13.77;;
15061;SDS011;7630;50.306;8.566;2023-02-19T21:27:19;17.20;;;15.20;;
15061;SDS011;7630;50.306;8.566;2023-02-19T21:31:21;21.57;;;17.03;;
15061;SDS011;7630;50.306;8.566;2023-02-19T21:35:23;16.10;;;14.43;;
15061;SDS011;7630;50.306;8.566;2023-02-19T21:39:25;15.73;;;14.10;;
15061;SDS011;7630;50.306;8.566;2023-02-19T21:43:27;16.07;;;14.27;;
15061;SDS011;7630;50.306;8.566;2023-02-19T21:47:28;17.50;;;14.50;;
15061;SDS011;7630;50.306;8.566;2023-02-19T21:51:31;15.87;;;14.47;;
15061;SDS011;7630;50.306;8.566;2023-02-19T21:55:33;16.97;;;15.43;;
15061;SDS011;7630;50.306;8.566;2023-02-19T21:59:34;16.33;;;14.63;;
15061;SDS011;7630;50.306;8.566;2023-02-19T22:03:36;16.53;;;14.93;;
15061;SDS011;7630;50.306;8.566;2023-02-19T22:07:37;16.40;;;14.67;;
15061;SDS011;7630;50.306;8.566;2023-02-19T22:11:38;18.60;;;15.50;;
15061;SDS011;7630;50.306;8.566;2023-02-19T22:15:39;17.90;;;16.00;;
15061;SDS011;7630;50.306;8.566;2023-02-19T22:19:40;16.07;;;14.47;;
15061;SDS011;7630;50.306;8.566;2023-02-19T22:23:42;15.97;;;13.80;;
15061;SDS011;7630;50.306;8.566;2023-02-19T22:27:45;16.80;;;15.23;;
15061;SDS011;7630;50.306;8.566;2023-02-19T22:31:46;17.17;;;15.60;;
15061;SDS011;7630;50.306;8.566;2023-02-19T22:35:48;18.83;;;16.37;;
15061;SDS011;7630;50.306;8.566;2023-02-19T22:39:49;16.90;;;15.30;;
15061;SDS011;7630;50.306;8.566;2023-02-19T22:43:52;16.40;;;14.63;;
15061;SDS011;7630;50.306;8.566;2023-02-19T22:47:57;17.73;;;15.93;;
15061;SDS011;7630;50.306;8.566;2023-02-19T22:52:02;17.27;;;15.53;;
15061;SDS011;7630;50.306;8.566;2023-02-19T22:56:07;18.37;;;15.97;;
15061;SDS011;7630;50.306;8.566;2023-02-19T23:00:08;18.07;;;14.83;;
15061;SDS011;7630;50.306;8.566;2023-02-19T23:04:11;16.63;;;14.43;;
15061;SDS011;7630;50.306;8.566;2023-02-19T23:08:12;18.00;;;16.10;;
15061;SDS011;7630;50.306;8.566;2023-02-19T23:12:13;16.37;;;14.67;;
15061;SDS011;7630;50.306;8.566;2023-02-19T23:16:14;20.60;;;14.33;;
15061;SDS011;7630;50.306;8.566;2023-02-19T23:20:16;14.20;;;12.63;;
15061;SDS011;7630;50.306;8.566;2023-02-19T23:24:17;13.03;;;11.73;;
15061;SDS011;7630;50.306;8.566;2023-02-19T23:28:18;14.57;;;12.00;;
15061;SDS011;7630;50.306;8.566;2023-02-19T23:32:19;11.00;;;9.90;;
15061;SDS011;7630;50.306;8.566;2023-02-19T23:36:23;12.57;;;11.37;;
15061;SDS011;7630;50.306;8.566;2023-02-19T23:40:24;12.53;;;11.03;;
15061;SDS011;7630;50.306;8.566;2023-02-19T23:44:25;12.03;;;10.67;;
15061;SDS011;7630;50.306;8.566;2023-02-19T23:48:26;11.53;;;10.40;;
15061;SDS011;7630;50.306;8.566;2023-02-19T23:52:27;10.43;;;9.43;;
15061;SDS011;7630;50.306;8.566;2023-02-19T23:56:28;11.03;;;9.93;;
